AirNav   Air Wisconsin Up To $57,000 Bonus
 
 1534 users online  

I73 Moraine Air Park
Dayton, Ohio, USA

GOING TO DAYTON?


FAA INFORMATION EFFECTIVE 08 SEPTEMBER 2022

Location

FAA Identifier: I73
Lat/Long: 39-40-55.5950N 084-14-23.9700W
39-40.926583N 084-14.399500W
39.6821097,-84.2399917
(estimated)
Elevation: 720 ft. / 219.5 m (surveyed)
Variation: 04W (1985)
From city: 4 miles SW of DAYTON, OH
Time zone: UTC -4 (UTC -5 during Standard Time)
Zip code: 45439

Airport Operations

Airport use: Open to the public
Activation date: 10/1947
Control tower: no
ARTCC: INDIANAPOLIS CENTER
FSS: DAYTON FLIGHT SERVICE STATION
NOTAMs facility: DAY (NOTAM-D service available)
Attendance: DAYLIGHT HOURS
Wind indicator: yes
Segmented circle: no
Lights: SS-SR
Beacon: white-green (lighted land airport)

Airport Communications

CTAF/UNICOM: 122.7
COLUMBUS APPROACH: 118.85
COLUMBUS DEPARTURE: 118.85
CLASS C: 118.85
IC: 118.85
WX ASOS at MGY (6 nm S): 118.375 (937-885-2171)
WX AWOS-3 at I19 (11 nm E): 118.525 (937-372-4668)
WX AWOS-3 at MWO (12 nm SW): 120.025 (513-422-3505)
WX AWOS-3 at I68 (13 nm S): 120.55 (513-934-5500)
WX ASOS at DAY (13 nm N): PHONE 937-415-6819

Nearby radio navigation aids

VOR radial/distance  VOR name  Freq  Var
DQNr161/21.3DAYTON VOR/DME114.5001W
MXQr311/25.3MIDWEST VOR/DME112.9004W
RODr199/37.5ROSEWOOD VORTAC117.5005W

 
NDB name  Hdg/Dist  Freq  Var  ID
ONIDA036/7.322304WMW -- .--
BRUNY162/10.831506WAT .- -
HOOK FIELD045/14.623904WHKF .... -.- ..-.
SPORTYS002/36.324504WPWF .--. .-- ..-.
COURT HOUSE283/39.541406WCSS -.-. ... ...

Airport Services

Fuel available: 100LL
Parking: tiedowns
Airframe service: MAJOR
Powerplant service: MAJOR
Bottled oxygen: NONE
Bulk oxygen: NONE

Runway Information

Runway 8/26

Dimensions: 3500 x 65 ft. / 1067 x 20 m
Surface: asphalt, in good condition
Runway edge lights: medium intensity
RUNWAY 8  RUNWAY 26
Latitude: 39-40.875000N39-40.978167N
Longitude: 084-14.766167W084-14.032833W
Elevation: 720.0 ft.720.0 ft.
Traffic pattern: leftleft
Runway heading: 084 magnetic, 080 true264 magnetic, 260 true
Displaced threshold: 558 ft.136 ft.
Markings: basic, in good conditionbasic, in good condition
Runway end identifier lights: nono
Touchdown point: yes, no lightsyes, no lights
Obstructions: 15 ft. berm, lighted, 201 ft. from runway, 75 ft. left of centerline
+15 FT LGTD DIKE 0 FT FROM RY END 85 FT RIGHT TO 200 FT FROM EOR 75 FT LEFT.
6 ft. berm, lighted, 201 ft. from runway, 60 ft. right of centerline
6 FT LGTD DIKE 0 FT FROM RY END 125 FT LEFT TO 200 FT FM EOR 120 FT R. 15 FT BRUSH 60 TO 100 FT FM EOR 50 FT R.

Airport Ownership and Management from official FAA records

Ownership: Publicly-owned
JOINT PVT/PUB OWNERSHIP.
Owner: MORAINE AIRPARK, INC
3800 CLEARVIEW AVE
MORAINE, OH 45439-1199
Phone 937-866-2489
JOINT OWNERSHIP WITH MONTGOMERY CO.
Manager: DAVID WATSON
3800 CLEARVIEW AVE
MORAINE, OH 45439-1199
Phone 937-866-2489
MORAINEAIRPARK@MSN.COM.

Airport Operational Statistics

Aircraft based on the field: 132
Single engine airplanes: 115
Multi engine airplanes: 3
Helicopters: 10
Gliders airplanes: 1
Ultralights: 3
    
Aircraft operations: avg 53/day *
36% local general aviation
36% transient general aviation
27% air taxi
<1% military
* for 12-month period ending 09 September 2019

Additional Remarks

15 FT LEVEE S OF & PARALLEL TO RY. TREES N OF RY.
PAEW ADJ TWYS.
FOR CD CTC COLUMBUS APCH AT 614-338-8537.
ULTRA-LIGHT ACTVTY.
RY 8 & 26, CLIMB STRAIGHT OUT TO 1700 FT MSL.
65 FT TREE OVERHANS PARALLEL TXY BETWEEN TERMINAL AND RWY 26 END.
MILITARY JETS OVER ARPT INBOUND & OUTBOUND TO WRIGHT PATTERSON AFB 12 MI NE.

Instrument Procedures

There are no published instrument procedures at I73.

Some nearby airports with instrument procedures:

KMGY - Dayton-Wright Brothers Airport (6 nm S)
I19 - Greene County/Lewis A Jackson Regional Airport (11 nm E)
KMWO - Middletown Regional Airport/Hook Field (12 nm SW)
KFFO - Wright-Patterson Air Force Base (12 nm NE)
I68 - Warren County Airport/John Lane Field (13 nm S)
KDAY - James M Cox Dayton International Airport (13 nm N)
3I7 - Dayton/Phillipsburg Airport (16 nm NW)
 
Loc | Ops | Rwys | IFR | FBO | Links
Com | Nav | Svcs | Stats | Notes
Area around I73 (Moraine Air Park)
 
Road maps at: MapQuest Bing Google
 
Aerial photo
WARNING: Photo may not be current or correct
Aerial photo of I73 (Moraine Air Park)
Photo taken 01-Aug-2006
from a Cessna 340

Do you have a better or more recent aerial photo of Moraine Air Park that you would like to share? If so, please send us your photo.

 
Sectional chart

 
Airport distance calculator
Flying to Moraine Air Park? Find the distance to fly.

From to I73

Sunrise and sunset
Times for 30-Sep-2022
 Local
(UTC-4)
 Zulu
(UTC)
Morning civil twilight07:0611:06
Sunrise07:3311:33
Sunset19:2123:21
Evening civil twilight19:4823:48

Current date and time
Zulu (UTC)  30-Sep-2022 16:32:49
Local (UTC-4)  30-Sep-2022 12:32:49
 
METAR
KMGY 
5nm S 
301553Z AUTO 07009KT 10SM CLR 17/08 A3025 RMK AO2 SLP242 T01720083
KMWO 
12nm SW 
301615Z AUTO 06010G14KT 020V080 10SM CLR 18/07 A3026 RMK AO2 T01780070
KFFO 
12nm NE 
301555Z AUTO 04007KT 10SM CLR 17/08 A3022 RMK AO2 SLP238 T01680080
KDAY 
13nm N 
301556Z 06010KT 10SM FEW250 18/08 A3026 RMK AO2 SLP248 T01780078
KI68 
13nm S 
301615Z AUTO 07008KT 10SM CLR 18/09 A3025 RMK AO1 T01760087
TAF
KFFO 
12nm NE 
301100Z 3011/0117 VRB06KT 9999 MIFG SKC QNH3025INS BECMG 3012/3014 05012KT 9999 NSW FEW200 QNH3009INS BECMG 3022/3023 VRB06KT 9999 BKN200 510102 QNH3002INS BECMG 0113/0114 03010G15KT 9999 BKN200 520103 QNH3001INS BECMG 0114/0116 02015G20KT 9999 SCT120 OVC200 520103 QNH3000INS TEMPO 0116/0117 02015G25KT VCSH TX20/3020Z TN04/3011Z
KDAY 
13nm N 
301131Z 3012/0112 06009KT P6SM FEW200 FM301600 05010G16KT P6SM SCT250 FM302300 04007KT P6SM BKN250 FM010600 03010KT P6SM OVC200
NOTAMs
Click for the latest NOTAMs
NOTAMs are issued by the DoD/FAA and will open in a separate window not controlled by AirNav.

 

 
 

FBO, Fuel Providers, and Aircraft Ground Support

  
 Business Name 
 
 Contact 
 
 Services / Description 
 
Fuel Prices
 
Comments
  
Moraine Airpark 937-866-2489
[web site]
[email]
Aviation fuel, Aircraft parking (ramp or tiedown), Flight training, Aircraft rental, Aerial tours / aerial sightseeing, Aircraft maintenance, Aircraft modifications, ...

More info about Moraine Airpark
EPIC
100LL
FS $5.99 
GUARANTEED
 
   1 read write
FS=Full service
Update Fuel Prices
 

Would you like to see your business listed on this page?

 If your business provides an interesting product or service to pilots, flight crews, aircraft, or users of the Moraine Air Park, you should consider listing it here.  To start the listing process, click on the button below
 
Add a business
 

Other Pages about Moraine Air Park

www.moraineairpark.com
www.india73.com
 
Update a link
 
Copyright © AirNav, LLC. All rights reserved. Privacy Policy  Contact